sensor_id;sensor_type;location;lat;lon;timestamp;P1;durP1;ratioP1;P2;durP2;ratioP2
41667;SDS011;27356;50.920;5.350;2023-03-16T00:00:52;7.43;;;4.97;;
41667;SDS011;27356;50.920;5.350;2023-03-16T00:03:18;7.28;;;4.53;;
41667;SDS011;27356;50.920;5.350;2023-03-16T00:05:44;10.20;;;4.68;;
41667;SDS011;27356;50.920;5.350;2023-03-16T00:08:11;7.35;;;4.50;;
41667;SDS011;27356;50.920;5.350;2023-03-16T00:10:37;6.60;;;4.78;;
41667;SDS011;27356;50.920;5.350;2023-03-16T00:13:03;8.10;;;5.00;;
41667;SDS011;27356;50.920;5.350;2023-03-16T00:15:29;8.48;;;5.15;;
41667;SDS011;27356;50.920;5.350;2023-03-16T00:17:54;7.72;;;4.40;;
41667;SDS011;27356;50.920;5.350;2023-03-16T00:20:20;6.82;;;4.47;;
41667;SDS011;27356;50.920;5.350;2023-03-16T00:22:46;7.93;;;4.53;;
41667;SDS011;27356;50.920;5.350;2023-03-16T00:25:12;6.82;;;4.25;;
41667;SDS011;27356;50.920;5.350;2023-03-16T00:27:39;6.53;;;4.50;;
41667;SDS011;27356;50.920;5.350;2023-03-16T00:30:05;5.20;;;4.15;;
41667;SDS011;27356;50.920;5.350;2023-03-16T00:34:59;7.13;;;4.47;;
41667;SDS011;27356;50.920;5.350;2023-03-16T00:37:27;6.28;;;4.45;;
41667;SDS011;27356;50.920;5.350;2023-03-16T00:39:53;7.75;;;4.22;;
41667;SDS011;27356;50.920;5.350;2023-03-16T00:42:20;7.43;;;4.30;;
41667;SDS011;27356;50.920;5.350;2023-03-16T00:44:51;10.15;;;4.90;;
41667;SDS011;27356;50.920;5.350;2023-03-16T00:47:21;7.88;;;4.00;;
41667;SDS011;27356;50.920;5.350;2023-03-16T00:49:49;8.00;;;4.07;;
41667;SDS011;27356;50.920;5.350;2023-03-16T00:52:14;6.75;;;3.97;;
41667;SDS011;27356;50.920;5.350;2023-03-16T00:54:41;7.05;;;4.35;;
41667;SDS011;27356;50.920;5.350;2023-03-16T00:57:08;9.45;;;4.10;;
41667;SDS011;27356;50.920;5.350;2023-03-16T00:59:35;5.43;;;3.63;;
41667;SDS011;27356;50.920;5.350;2023-03-16T01:02:02;4.57;;;4.07;;
41667;SDS011;27356;50.920;5.350;2023-03-16T01:04:29;6.22;;;3.40;;
41667;SDS011;27356;50.920;5.350;2023-03-16T01:06:54;4.80;;;3.80;;
41667;SDS011;27356;50.920;5.350;2023-03-16T01:09:20;4.88;;;3.80;;
41667;SDS011;27356;50.920;5.350;2023-03-16T01:11:46;4.93;;;3.55;;
41667;SDS011;27356;50.920;5.350;2023-03-16T01:14:15;7.65;;;3.53;;
41667;SDS011;27356;50.920;5.350;2023-03-16T01:16:41;6.68;;;3.92;;
41667;SDS011;27356;50.920;5.350;2023-03-16T01:19:09;3.65;;;3.35;;
41667;SDS011;27356;50.920;5.350;2023-03-16T01:21:36;6.00;;;3.40;;
41667;SDS011;27356;50.920;5.350;2023-03-16T01:24:03;6.50;;;3.13;;
41667;SDS011;27356;50.920;5.350;2023-03-16T01:26:29;8.77;;;3.20;;
41667;SDS011;27356;50.920;5.350;2023-03-16T01:28:55;6.63;;;3.75;;
41667;SDS011;27356;50.920;5.350;2023-03-16T01:31:21;10.23;;;3.65;;
41667;SDS011;27356;50.920;5.350;2023-03-16T01:33:46;7.07;;;3.38;;
41667;SDS011;27356;50.920;5.350;2023-03-16T01:36:14;8.40;;;3.92;;
41667;SDS011;27356;50.920;5.350;2023-03-16T01:38:41;8.20;;;3.22;;
41667;SDS011;27356;50.920;5.350;2023-03-16T01:41:07;5.70;;;3.30;;
41667;SDS011;27356;50.920;5.350;2023-03-16T01:43:34;4.80;;;2.78;;
41667;SDS011;27356;50.920;5.350;2023-03-16T01:48:52;9.77;;;3.03;;
41667;SDS011;27356;50.920;5.350;2023-03-16T01:59:27;4.03;;;3.13;;
41667;SDS011;27356;50.920;5.350;2023-03-16T02:01:57;3.60;;;2.58;;
41667;SDS011;27356;50.920;5.350;2023-03-16T02:04:45;5.78;;;3.03;;
41667;SDS011;27356;50.920;5.350;2023-03-16T02:07:16;7.55;;;3.35;;
41667;SDS011;27356;50.920;5.350;2023-03-16T02:09:45;5.78;;;3.03;;
41667;SDS011;27356;50.920;5.350;2023-03-16T02:12:14;4.57;;;2.83;;
41667;SDS011;27356;50.920;5.350;2023-03-16T02:14:47;5.95;;;2.47;;
41667;SDS011;27356;50.920;5.350;2023-03-16T02:17:15;4.43;;;2.55;;
41667;SDS011;27356;50.920;5.350;2023-03-16T02:22:31;5.20;;;2.65;;
41667;SDS011;27356;50.920;5.350;2023-03-16T02:25:00;3.88;;;2.58;;
41667;SDS011;27356;50.920;5.350;2023-03-16T02:27:29;5.90;;;2.90;;
41667;SDS011;27356;50.920;5.350;2023-03-16T02:30:12;4.95;;;2.45;;
41667;SDS011;27356;50.920;5.350;2023-03-16T02:32:40;7.18;;;2.88;;
41667;SDS011;27356;50.920;5.350;2023-03-16T02:35:06;4.30;;;2.30;;
41667;SDS011;27356;50.920;5.350;2023-03-16T02:37:34;5.90;;;2.67;;
41667;SDS011;27356;50.920;5.350;2023-03-16T02:40:00;4.88;;;2.72;;
41667;SDS011;27356;50.920;5.350;2023-03-16T02:42:29;6.13;;;2.72;;
41667;SDS011;27356;50.920;5.350;2023-03-16T02:44:56;6.78;;;2.45;;
41667;SDS011;27356;50.920;5.350;2023-03-16T02:47:29;5.25;;;2.67;;
41667;SDS011;27356;50.920;5.350;2023-03-16T02:50:06;4.47;;;2.75;;
41667;SDS011;27356;50.920;5.350;2023-03-16T02:52:34;4.10;;;2.33;;
41667;SDS011;27356;50.920;5.350;2023-03-16T02:55:00;4.53;;;2.42;;
41667;SDS011;27356;50.920;5.350;2023-03-16T02:57:27;3.80;;;2.35;;
41667;SDS011;27356;50.920;5.350;2023-03-16T02:59:52;3.92;;;2.72;;
41667;SDS011;27356;50.920;5.350;2023-03-16T03:02:18;3.72;;;2.70;;
41667;SDS011;27356;50.920;5.350;2023-03-16T03:04:44;6.55;;;2.45;;
41667;SDS011;27356;50.920;5.350;2023-03-16T03:07:13;4.63;;;2.40;;
41667;SDS011;27356;50.920;5.350;2023-03-16T03:09:40;6.35;;;3.08;;
41667;SDS011;27356;50.920;5.350;2023-03-16T03:12:09;4.68;;;2.65;;
41667;SDS011;27356;50.920;5.350;2023-03-16T03:14:37;8.52;;;2.35;;
41667;SDS011;27356;50.920;5.350;2023-03-16T03:17:07;4.40;;;2.20;;
41667;SDS011;27356;50.920;5.350;2023-03-16T03:19:34;8.48;;;2.90;;
41667;SDS011;27356;50.920;5.350;2023-03-16T03:22:01;6.35;;;2.42;;
41667;SDS011;27356;50.920;5.350;2023-03-16T03:24:29;4.20;;;2.58;;
41667;SDS011;27356;50.920;5.350;2023-03-16T03:26:55;10.43;;;2.70;;
41667;SDS011;27356;50.920;5.350;2023-03-16T03:29:22;6.32;;;2.42;;
41667;SDS011;27356;50.920;5.350;2023-03-16T03:31:48;9.27;;;2.70;;
41667;SDS011;27356;50.920;5.350;2023-03-16T03:34:14;3.10;;;2.45;;
41667;SDS011;27356;50.920;5.350;2023-03-16T03:36:39;8.93;;;2.70;;
41667;SDS011;27356;50.920;5.350;2023-03-16T03:39:05;9.90;;;2.72;;
41667;SDS011;27356;50.920;5.350;2023-03-16T03:41:32;7.90;;;2.67;;
41667;SDS011;27356;50.920;5.350;2023-03-16T03:43:58;6.47;;;2.75;;
41667;SDS011;27356;50.920;5.350;2023-03-16T03:46:25;4.97;;;2.58;;
41667;SDS011;27356;50.920;5.350;2023-03-16T03:48:51;9.32;;;2.88;;
41667;SDS011;27356;50.920;5.350;2023-03-16T03:51:17;5.60;;;2.67;;
41667;SDS011;27356;50.920;5.350;2023-03-16T03:53:42;6.13;;;2.67;;
41667;SDS011;27356;50.920;5.350;2023-03-16T03:56:08;7.45;;;2.50;;
41667;SDS011;27356;50.920;5.350;2023-03-16T03:58:34;13.98;;;2.65;;
41667;SDS011;27356;50.920;5.350;2023-03-16T04:00:59;5.70;;;2.88;;
41667;SDS011;27356;50.920;5.350;2023-03-16T04:03:25;7.03;;;3.17;;
41667;SDS011;27356;50.920;5.350;2023-03-16T04:05:51;7.50;;;2.85;;
41667;SDS011;27356;50.920;5.350;2023-03-16T04:08:16;4.68;;;2.65;;
41667;SDS011;27356;50.920;5.350;2023-03-16T04:10:42;8.23;;;2.83;;
41667;SDS011;27356;50.920;5.350;2023-03-16T04:13:08;6.65;;;3.25;;
41667;SDS011;27356;50.920;5.350;2023-03-16T04:15:34;6.45;;;2.55;;
41667;SDS011;27356;50.920;5.350;2023-03-16T04:18:02;4.57;;;2.80;;
41667;SDS011;27356;50.920;5.350;2023-03-16T04:20:28;8.70;;;3.05;;
41667;SDS011;27356;50.920;5.350;2023-03-16T04:22:54;6.50;;;2.75;;
41667;SDS011;27356;50.920;5.350;2023-03-16T04:25:22;5.30;;;2.85;;
41667;SDS011;27356;50.920;5.350;2023-03-16T04:27:50;5.72;;;2.85;;
41667;SDS011;27356;50.920;5.350;2023-03-16T04:30:16;9.50;;;4.15;;
41667;SDS011;27356;50.920;5.350;2023-03-16T04:32:42;6.82;;;3.03;;
41667;SDS011;27356;50.920;5.350;2023-03-16T04:35:09;6.72;;;3.13;;
41667;SDS011;27356;50.920;5.350;2023-03-16T04:37:35;7.80;;;2.75;;
41667;SDS011;27356;50.920;5.350;2023-03-16T04:40:01;6.20;;;2.88;;
41667;SDS011;27356;50.920;5.350;2023-03-16T04:42:34;5.75;;;2.92;;
41667;SDS011;27356;50.920;5.350;2023-03-16T04:45:00;6.85;;;2.75;;
41667;SDS011;27356;50.920;5.350;2023-03-16T04:47:26;6.97;;;3.00;;
41667;SDS011;27356;50.920;5.350;2023-03-16T04:49:51;6.47;;;2.80;;
41667;SDS011;27356;50.920;5.350;2023-03-16T04:52:17;6.13;;;2.65;;
41667;SDS011;27356;50.920;5.350;2023-03-16T04:54:43;8.88;;;2.60;;
41667;SDS011;27356;50.920;5.350;2023-03-16T04:57:09;8.63;;;3.40;;
41667;SDS011;27356;50.920;5.350;2023-03-16T04:59:35;7.15;;;2.50;;
41667;SDS011;27356;50.920;5.350;2023-03-16T05:02:01;5.60;;;2.40;;
41667;SDS011;27356;50.920;5.350;2023-03-16T05:04:28;5.05;;;2.97;;
41667;SDS011;27356;50.920;5.350;2023-03-16T05:06:53;4.70;;;2.95;;
41667;SDS011;27356;50.920;5.350;2023-03-16T05:09:19;5.10;;;2.90;;
41667;SDS011;27356;50.920;5.350;2023-03-16T05:11:45;7.47;;;2.70;;
41667;SDS011;27356;50.920;5.350;2023-03-16T05:14:10;4.70;;;2.67;;
41667;SDS011;27356;50.920;5.350;2023-03-16T05:16:36;6.05;;;2.55;;
41667;SDS011;27356;50.920;5.350;2023-03-16T05:19:02;4.50;;;2.53;;
41667;SDS011;27356;50.920;5.350;2023-03-16T05:21:28;10.40;;;3.22;;
41667;SDS011;27356;50.920;5.350;2023-03-16T05:23:56;4.63;;;3.00;;
41667;SDS011;27356;50.920;5.350;2023-03-16T05:26:22;6.05;;;2.88;;
41667;SDS011;27356;50.920;5.350;2023-03-16T05:28:49;8.52;;;2.83;;
41667;SDS011;27356;50.920;5.350;2023-03-16T05:31:16;7.57;;;2.97;;
41667;SDS011;27356;50.920;5.350;2023-03-16T05:33:42;11.18;;;3.13;;
41667;SDS011;27356;50.920;5.350;2023-03-16T05:36:08;6.32;;;2.72;;
41667;SDS011;27356;50.920;5.350;2023-03-16T05:38:35;5.43;;;2.80;;
41667;SDS011;27356;50.920;5.350;2023-03-16T05:41:01;4.95;;;2.53;;
41667;SDS011;27356;50.920;5.350;2023-03-16T05:43:28;6.28;;;2.80;;
41667;SDS011;27356;50.920;5.350;2023-03-16T05:45:55;3.55;;;2.90;;
41667;SDS011;27356;50.920;5.350;2023-03-16T05:48:21;9.48;;;2.80;;
41667;SDS011;27356;50.920;5.350;2023-03-16T05:50:50;6.15;;;2.58;;
41667;SDS011;27356;50.920;5.350;2023-03-16T05:53:16;10.02;;;2.85;;
41667;SDS011;27356;50.920;5.350;2023-03-16T05:55:43;5.72;;;2.03;;
41667;SDS011;27356;50.920;5.350;2023-03-16T05:58:08;5.75;;;2.67;;
41667;SDS011;27356;50.920;5.350;2023-03-16T06:00:35;5.80;;;2.80;;
41667;SDS011;27356;50.920;5.350;2023-03-16T06:03:03;6.68;;;2.85;;
41667;SDS011;27356;50.920;5.350;2023-03-16T06:05:29;7.15;;;3.22;;
41667;SDS011;27356;50.920;5.350;2023-03-16T06:07:56;6.05;;;2.42;;
41667;SDS011;27356;50.920;5.350;2023-03-16T06:10:22;6.68;;;2.60;;
41667;SDS011;27356;50.920;5.350;2023-03-16T06:12:50;4.07;;;2.50;;
41667;SDS011;27356;50.920;5.350;2023-03-16T06:15:19;5.10;;;2.17;;
41667;SDS011;27356;50.920;5.350;2023-03-16T06:17:48;5.47;;;2.25;;
41667;SDS011;27356;50.920;5.350;2023-03-16T06:20:14;5.40;;;2.65;;
41667;SDS011;27356;50.920;5.350;2023-03-16T06:22:41;9.68;;;2.70;;
41667;SDS011;27356;50.920;5.350;2023-03-16T06:25:08;5.30;;;2.28;;
41667;SDS011;27356;50.920;5.350;2023-03-16T06:27:36;8.27;;;2.50;;
41667;SDS011;27356;50.920;5.350;2023-03-16T06:30:02;4.13;;;2.50;;
41667;SDS011;27356;50.920;5.350;2023-03-16T06:32:30;7.63;;;2.60;;
41667;SDS011;27356;50.920;5.350;2023-03-16T06:34:56;6.75;;;2.78;;
41667;SDS011;27356;50.920;5.350;2023-03-16T06:37:23;3.80;;;2.67;;
41667;SDS011;27356;50.920;5.350;2023-03-16T06:39:49;7.60;;;2.65;;
41667;SDS011;27356;50.920;5.350;2023-03-16T06:42:15;6.78;;;2.40;;
41667;SDS011;27356;50.920;5.350;2023-03-16T06:44:43;5.00;;;2.92;;
41667;SDS011;27356;50.920;5.350;2023-03-16T06:47:09;5.85;;;2.45;;
41667;SDS011;27356;50.920;5.350;2023-03-16T06:49:35;4.63;;;1.80;;
41667;SDS011;27356;50.920;5.350;2023-03-16T06:52:01;7.72;;;2.35;;
41667;SDS011;27356;50.920;5.350;2023-03-16T06:54:27;3.88;;;1.70;;
41667;SDS011;27356;50.920;5.350;2023-03-16T06:56:56;4.88;;;2.28;;
41667;SDS011;27356;50.920;5.350;2023-03-16T06:59:22;5.05;;;2.22;;
41667;SDS011;27356;50.920;5.350;2023-03-16T07:01:48;6.00;;;2.33;;
41667;SDS011;27356;50.920;5.350;2023-03-16T07:04:15;7.13;;;1.90;;
41667;SDS011;27356;50.920;5.350;2023-03-16T07:06:40;6.43;;;2.08;;
41667;SDS011;27356;50.920;5.350;2023-03-16T07:09:07;5.18;;;2.00;;
41667;SDS011;27356;50.920;5.350;2023-03-16T07:11:33;6.28;;;2.10;;
41667;SDS011;27356;50.920;5.350;2023-03-16T07:13:58;8.63;;;1.88;;
41667;SDS011;27356;50.920;5.350;2023-03-16T07:16:25;3.83;;;1.70;;
41667;SDS011;27356;50.920;5.350;2023-03-16T07:18:51;3.47;;;2.47;;
41667;SDS011;27356;50.920;5.350;2023-03-16T07:21:17;6.82;;;2.05;;
41667;SDS011;27356;50.920;5.350;2023-03-16T07:23:43;4.85;;;1.95;;
41667;SDS011;27356;50.920;5.350;2023-03-16T07:26:09;6.78;;;2.00;;
41667;SDS011;27356;50.920;5.350;2023-03-16T07:28:36;6.03;;;1.83;;
41667;SDS011;27356;50.920;5.350;2023-03-16T07:31:03;7.40;;;1.70;;
41667;SDS011;27356;50.920;5.350;2023-03-16T07:33:29;3.25;;;1.50;;
41667;SDS011;27356;50.920;5.350;2023-03-16T07:35:56;6.07;;;1.75;;
41667;SDS011;27356;50.920;5.350;2023-03-16T07:38:22;4.60;;;1.75;;
41667;SDS011;27356;50.920;5.350;2023-03-16T07:40:48;6.07;;;1.98;;
41667;SDS011;27356;50.920;5.350;2023-03-16T07:43:14;10.45;;;2.53;;
41667;SDS011;27356;50.920;5.350;2023-03-16T07:45:39;7.65;;;2.13;;
41667;SDS011;27356;50.920;5.350;2023-03-16T07:48:05;6.97;;;2.15;;
41667;SDS011;27356;50.920;5.350;2023-03-16T07:50:31;5.82;;;2.30;;
41667;SDS011;27356;50.920;5.350;2023-03-16T07:52:57;4.00;;;2.03;;
41667;SDS011;27356;50.920;5.350;2023-03-16T07:55:23;5.13;;;1.77;;
41667;SDS011;27356;50.920;5.350;2023-03-16T07:57:48;7.38;;;2.13;;
41667;SDS011;27356;50.920;5.350;2023-03-16T08:00:15;7.18;;;2.42;;
41667;SDS011;27356;50.920;5.350;2023-03-16T08:02:41;7.85;;;2.50;;
41667;SDS011;27356;50.920;5.350;2023-03-16T08:05:07;8.02;;;2.10;;
41667;SDS011;27356;50.920;5.350;2023-03-16T08:07:36;6.40;;;1.80;;
41667;SDS011;27356;50.920;5.350;2023-03-16T08:10:02;6.78;;;1.63;;
41667;SDS011;27356;50.920;5.350;2023-03-16T08:12:29;5.50;;;1.75;;
41667;SDS011;27356;50.920;5.350;2023-03-16T08:14:54;3.55;;;1.50;;
41667;SDS011;27356;50.920;5.350;2023-03-16T08:17:20;2.13;;;1.42;;
41667;SDS011;27356;50.920;5.350;2023-03-16T08:19:45;4.50;;;1.67;;
41667;SDS011;27356;50.920;5.350;2023-03-16T08:22:11;6.30;;;2.35;;
41667;SDS011;27356;50.920;5.350;2023-03-16T08:24:37;2.20;;;1.55;;
41667;SDS011;27356;50.920;5.350;2023-03-16T08:27:02;6.53;;;1.63;;
41667;SDS011;27356;50.920;5.350;2023-03-16T08:29:28;6.82;;;1.80;;
41667;SDS011;27356;50.920;5.350;2023-03-16T08:31:54;5.03;;;1.70;;
41667;SDS011;27356;50.920;5.350;2023-03-16T08:34:22;2.42;;;1.45;;
41667;SDS011;27356;50.920;5.350;2023-03-16T08:36:48;6.13;;;1.60;;
41667;SDS011;27356;50.920;5.350;2023-03-16T08:39:14;3.45;;;1.52;;
41667;SDS011;27356;50.920;5.350;2023-03-16T08:41:40;3.72;;;1.85;;
41667;SDS011;27356;50.920;5.350;2023-03-16T08:44:07;5.88;;;1.50;;
41667;SDS011;27356;50.920;5.350;2023-03-16T08:46:33;6.93;;;1.65;;
41667;SDS011;27356;50.920;5.350;2023-03-16T08:48:59;5.97;;;1.92;;
41667;SDS011;27356;50.920;5.350;2023-03-16T08:51:25;7.43;;;2.00;;
41667;SDS011;27356;50.920;5.350;2023-03-16T08:53:51;4.38;;;1.55;;
41667;SDS011;27356;50.920;5.350;2023-03-16T08:56:18;5.25;;;1.58;;
41667;SDS011;27356;50.920;5.350;2023-03-16T08:58:44;6.03;;;1.90;;
41667;SDS011;27356;50.920;5.350;2023-03-16T09:01:10;7.40;;;1.83;;
41667;SDS011;27356;50.920;5.350;2023-03-16T09:03:38;5.03;;;2.13;;
41667;SDS011;27356;50.920;5.350;2023-03-16T09:06:06;6.07;;;1.73;;
41667;SDS011;27356;50.920;5.350;2023-03-16T09:08:34;10.00;;;2.78;;
41667;SDS011;27356;50.920;5.350;2023-03-16T09:11:00;3.40;;;2.00;;
41667;SDS011;27356;50.920;5.350;2023-03-16T09:13:27;6.07;;;1.95;;
41667;SDS011;27356;50.920;5.350;2023-03-16T09:15:54;4.22;;;1.80;;
41667;SDS011;27356;50.920;5.350;2023-03-16T09:18:20;6.90;;;1.60;;
41667;SDS011;27356;50.920;5.350;2023-03-16T09:20:47;1.75;;;1.35;;
41667;SDS011;27356;50.920;5.350;2023-03-16T09:23:14;5.97;;;2.38;;
41667;SDS011;27356;50.920;5.350;2023-03-16T09:25:39;8.63;;;1.73;;
41667;SDS011;27356;50.920;5.350;2023-03-16T09:28:05;4.88;;;2.03;;
41667;SDS011;27356;50.920;5.350;2023-03-16T09:30:31;3.15;;;1.73;;
41667;SDS011;27356;50.920;5.350;2023-03-16T09:32:57;9.30;;;1.90;;
41667;SDS011;27356;50.920;5.350;2023-03-16T09:35:23;4.97;;;1.90;;
41667;SDS011;27356;50.920;5.350;2023-03-16T09:37:49;5.05;;;1.90;;
41667;SDS011;27356;50.920;5.350;2023-03-16T09:40:34;2.47;;;1.30;;
41667;SDS011;27356;50.920;5.350;2023-03-16T09:46:11;5.57;;;2.08;;
41667;SDS011;27356;50.920;5.350;2023-03-16T09:48:46;6.55;;;2.45;;
41667;SDS011;27356;50.920;5.350;2023-03-16T09:51:16;3.85;;;1.98;;
41667;SDS011;27356;50.920;5.350;2023-03-16T09:53:54;4.57;;;1.80;;
41667;SDS011;27356;50.920;5.350;2023-03-16T09:56:28;3.33;;;1.73;;
41667;SDS011;27356;50.920;5.350;2023-03-16T09:59:04;5.13;;;2.10;;
41667;SDS011;27356;50.920;5.350;2023-03-16T10:09:46;8.50;;;1.70;;
41667;SDS011;27356;50.920;5.350;2023-03-16T10:12:18;4.25;;;2.00;;
41667;SDS011;27356;50.920;5.350;2023-03-16T10:15:09;5.57;;;1.75;;
41667;SDS011;27356;50.920;5.350;2023-03-16T10:17:58;7.15;;;1.50;;
41667;SDS011;27356;50.920;5.350;2023-03-16T10:20:38;2.78;;;1.60;;
41667;SDS011;27356;50.920;5.350;2023-03-16T10:23:39;4.13;;;1.60;;
41667;SDS011;27356;50.920;5.350;2023-03-16T10:25:59;1.92;;;1.33;;
41667;SDS011;27356;50.920;5.350;2023-03-16T10:30:58;4.03;;;1.45;;
41667;SDS011;27356;50.920;5.350;2023-03-16T10:38:53;4.15;;;1.63;;
41667;SDS011;27356;50.920;5.350;2023-03-16T10:41:27;6.13;;;1.40;;
41667;SDS011;27356;50.920;5.350;2023-03-16T10:49:26;3.33;;;1.27;;
41667;SDS011;27356;50.920;5.350;2023-03-16T10:51:54;3.53;;;1.45;;
41667;SDS011;27356;50.920;5.350;2023-03-16T10:54:33;4.15;;;1.50;;
41667;SDS011;27356;50.920;5.350;2023-03-16T10:57:12;1.95;;;0.93;;
41667;SDS011;27356;50.920;5.350;2023-03-16T11:02:45;2.88;;;1.13;;
41667;SDS011;27356;50.920;5.350;2023-03-16T11:07:57;4.70;;;1.40;;
41667;SDS011;27356;50.920;5.350;2023-03-16T11:10:28;6.50;;;1.20;;
41667;SDS011;27356;50.920;5.350;2023-03-16T11:13:09;3.67;;;1.52;;
41667;SDS011;27356;50.920;5.350;2023-03-16T11:15:47;3.58;;;1.10;;
41667;SDS011;27356;50.920;5.350;2023-03-16T11:20:51;3.58;;;1.10;;
41667;SDS011;27356;50.920;5.350;2023-03-16T11:23:20;2.15;;;0.90;;
41667;SDS011;27356;50.920;5.350;2023-03-16T11:25:53;4.50;;;1.20;;
41667;SDS011;27356;50.920;5.350;2023-03-16T11:33:25;5.07;;;1.35;;
41667;SDS011;27356;50.920;5.350;2023-03-16T11:38:57;5.55;;;1.23;;
41667;SDS011;27356;50.920;5.350;2023-03-16T11:50:16;6.90;;;1.13;;
41667;SDS011;27356;50.920;5.350;2023-03-16T11:57:57;4.07;;;0.90;;
41667;SDS011;27356;50.920;5.350;2023-03-16T12:01:31;3.85;;;0.90;;
41667;SDS011;27356;50.920;5.350;2023-03-16T12:06:57;1.67;;;0.90;;
41667;SDS011;27356;50.920;5.350;2023-03-16T12:10:01;10.35;;;0.88;;
41667;SDS011;27356;50.920;5.350;2023-03-16T12:17:54;2.42;;;0.82;;
41667;SDS011;27356;50.920;5.350;2023-03-16T12:20:37;3.00;;;0.67;;
41667;SDS011;27356;50.920;5.350;2023-03-16T12:23:32;3.53;;;0.80;;
41667;SDS011;27356;50.920;5.350;2023-03-16T12:26:02;5.00;;;0.90;;
41667;SDS011;27356;50.920;5.350;2023-03-16T12:28:28;1.38;;;0.73;;
41667;SDS011;27356;50.920;5.350;2023-03-16T12:39:01;4.72;;;1.00;;
41667;SDS011;27356;50.920;5.350;2023-03-16T12:41:47;3.33;;;0.50;;
41667;SDS011;27356;50.920;5.350;2023-03-16T12:50:08;4.30;;;1.05;;
41667;SDS011;27356;50.920;5.350;2023-03-16T12:52:41;2.70;;;0.70;;
41667;SDS011;27356;50.920;5.350;2023-03-16T12:55:13;3.17;;;0.98;;
41667;SDS011;27356;50.920;5.350;2023-03-16T12:57:41;3.90;;;1.05;;
41667;SDS011;27356;50.920;5.350;2023-03-16T13:00:09;3.38;;;0.82;;
41667;SDS011;27356;50.920;5.350;2023-03-16T13:02:37;1.83;;;0.90;;
41667;SDS011;27356;50.920;5.350;2023-03-16T13:05:11;3.75;;;0.80;;
41667;SDS011;27356;50.920;5.350;2023-03-16T13:07:47;2.50;;;0.70;;
41667;SDS011;27356;50.920;5.350;2023-03-16T13:10:15;4.90;;;1.10;;
41667;SDS011;27356;50.920;5.350;2023-03-16T13:12:44;4.15;;;0.85;;
41667;SDS011;27356;50.920;5.350;2023-03-16T13:17:48;2.10;;;0.95;;
41667;SDS011;27356;50.920;5.350;2023-03-16T13:20:32;10.27;;;1.77;;
41667;SDS011;27356;50.920;5.350;2023-03-16T13:28:14;2.92;;;1.00;;
41667;SDS011;27356;50.920;5.350;2023-03-16T13:30:47;6.15;;;1.27;;
41667;SDS011;27356;50.920;5.350;2023-03-16T13:35:50;11.75;;;1.42;;
41667;SDS011;27356;50.920;5.350;2023-03-16T13:38:19;3.90;;;1.33;;
41667;SDS011;27356;50.920;5.350;2023-03-16T13:40:56;3.00;;;0.80;;
41667;SDS011;27356;50.920;5.350;2023-03-16T13:43:27;2.70;;;1.10;;
41667;SDS011;27356;50.920;5.350;2023-03-16T13:45:55;1.83;;;0.85;;
41667;SDS011;27356;50.920;5.350;2023-03-16T13:48:22;2.13;;;1.10;;
41667;SDS011;27356;50.920;5.350;2023-03-16T13:50:55;2.08;;;0.90;;
41667;SDS011;27356;50.920;5.350;2023-03-16T13:53:24;4.75;;;0.90;;
41667;SDS011;27356;50.920;5.350;2023-03-16T13:55:54;5.07;;;0.67;;
41667;SDS011;27356;50.920;5.350;2023-03-16T13:58:31;1.08;;;0.60;;
41667;SDS011;27356;50.920;5.350;2023-03-16T14:01:00;4.78;;;1.08;;
41667;SDS011;27356;50.920;5.350;2023-03-16T14:03:29;4.45;;;0.77;;
41667;SDS011;27356;50.920;5.350;2023-03-16T14:05:57;5.25;;;0.75;;
41667;SDS011;27356;50.920;5.350;2023-03-16T14:08:23;3.45;;;1.10;;
41667;SDS011;27356;50.920;5.350;2023-03-16T14:10:50;3.38;;;0.60;;
41667;SDS011;27356;50.920;5.350;2023-03-16T14:15:50;3.55;;;0.75;;
41667;SDS011;27356;50.920;5.350;2023-03-16T14:18:22;0.98;;;0.35;;
41667;SDS011;27356;50.920;5.350;2023-03-16T14:20:53;1.48;;;0.60;;
41667;SDS011;27356;50.920;5.350;2023-03-16T14:23:24;3.60;;;0.90;;
41667;SDS011;27356;50.920;5.350;2023-03-16T14:25:52;0.85;;;0.40;;
41667;SDS011;27356;50.920;5.350;2023-03-16T14:28:20;4.45;;;0.50;;
41667;SDS011;27356;50.920;5.350;2023-03-16T14:30:53;0.85;;;0.60;;
41667;SDS011;27356;50.920;5.350;2023-03-16T14:33:27;0.85;;;0.60;;
41667;SDS011;27356;50.920;5.350;2023-03-16T14:35:56;1.23;;;0.50;;
41667;SDS011;27356;50.920;5.350;2023-03-16T14:38:30;2.40;;;0.70;;
41667;SDS011;27356;50.920;5.350;2023-03-16T14:41:11;1.98;;;0.70;;
41667;SDS011;27356;50.920;5.350;2023-03-16T14:43:50;1.52;;;0.55;;
41667;SDS011;27356;50.920;5.350;2023-03-16T14:46:28;1.63;;;0.67;;
41667;SDS011;27356;50.920;5.350;2023-03-16T14:51:25;1.83;;;0.60;;
41667;SDS011;27356;50.920;5.350;2023-03-16T14:53:52;0.90;;;0.43;;
41667;SDS011;27356;50.920;5.350;2023-03-16T14:56:18;1.95;;;0.70;;
41667;SDS011;27356;50.920;5.350;2023-03-16T14:58:44;2.92;;;0.75;;
41667;SDS011;27356;50.920;5.350;2023-03-16T15:01:12;6.80;;;0.68;;
41667;SDS011;27356;50.920;5.350;2023-03-16T15:03:41;1.27;;;0.60;;
41667;SDS011;27356;50.920;5.350;2023-03-16T15:06:08;5.13;;;0.57;;
41667;SDS011;27356;50.920;5.350;2023-03-16T15:08:34;2.78;;;0.68;;
41667;SDS011;27356;50.920;5.350;2023-03-16T15:11:07;1.67;;;0.40;;
41667;SDS011;27356;50.920;5.350;2023-03-16T15:13:33;2.03;;;0.75;;
41667;SDS011;27356;50.920;5.350;2023-03-16T15:16:20;1.17;;;0.40;;
41667;SDS011;27356;50.920;5.350;2023-03-16T15:18:46;1.48;;;0.50;;
41667;SDS011;27356;50.920;5.350;2023-03-16T15:21:16;1.17;;;0.50;;
41667;SDS011;27356;50.920;5.350;2023-03-16T15:23:45;3.00;;;0.43;;
41667;SDS011;27356;50.920;5.350;2023-03-16T15:26:12;6.47;;;1.50;;
41667;SDS011;27356;50.920;5.350;2023-03-16T15:28:39;3.03;;;1.00;;
41667;SDS011;27356;50.920;5.350;2023-03-16T15:31:05;3.47;;;0.82;;
41667;SDS011;27356;50.920;5.350;2023-03-16T15:33:31;1.48;;;0.80;;
41667;SDS011;27356;50.920;5.350;2023-03-16T15:35:58;3.10;;;0.88;;
41667;SDS011;27356;50.920;5.350;2023-03-16T15:40:53;4.20;;;0.80;;
41667;SDS011;27356;50.920;5.350;2023-03-16T15:43:20;4.00;;;1.08;;
41667;SDS011;27356;50.920;5.350;2023-03-16T15:45:47;1.13;;;1.00;;
41667;SDS011;27356;50.920;5.350;2023-03-16T15:48:16;2.78;;;0.82;;
41667;SDS011;27356;50.920;5.350;2023-03-16T15:50:49;1.52;;;0.70;;
41667;SDS011;27356;50.920;5.350;2023-03-16T15:53:37;3.42;;;0.77;;
41667;SDS011;27356;50.920;5.350;2023-03-16T15:56:14;2.40;;;0.80;;
41667;SDS011;27356;50.920;5.350;2023-03-16T15:58:43;4.70;;;0.77;;
41667;SDS011;27356;50.920;5.350;2023-03-16T16:01:16;1.25;;;0.80;;
41667;SDS011;27356;50.920;5.350;2023-03-16T16:03:46;5.07;;;0.90;;
41667;SDS011;27356;50.920;5.350;2023-03-16T16:06:12;3.92;;;0.80;;
41667;SDS011;27356;50.920;5.350;2023-03-16T16:08:39;2.78;;;0.60;;
41667;SDS011;27356;50.920;5.350;2023-03-16T16:11:09;4.60;;;0.90;;
41667;SDS011;27356;50.920;5.350;2023-03-16T16:13:39;1.60;;;0.50;;
41667;SDS011;27356;50.920;5.350;2023-03-16T16:16:08;2.30;;;0.75;;
41667;SDS011;27356;50.920;5.350;2023-03-16T16:18:38;3.50;;;0.95;;
41667;SDS011;27356;50.920;5.350;2023-03-16T16:21:04;2.75;;;0.98;;
41667;SDS011;27356;50.920;5.350;2023-03-16T16:23:33;2.70;;;0.85;;
41667;SDS011;27356;50.920;5.350;2023-03-16T16:26:03;3.85;;;1.00;;
41667;SDS011;27356;50.920;5.350;2023-03-16T16:28:33;1.00;;;0.65;;
41667;SDS011;27356;50.920;5.350;2023-03-16T16:30:59;2.17;;;1.10;;
41667;SDS011;27356;50.920;5.350;2023-03-16T16:33:27;4.00;;;0.60;;
41667;SDS011;27356;50.920;5.350;2023-03-16T16:36:03;1.88;;;0.80;;
41667;SDS011;27356;50.920;5.350;2023-03-16T16:38:31;2.25;;;0.85;;
41667;SDS011;27356;50.920;5.350;2023-03-16T16:40:58;3.70;;;0.90;;
41667;SDS011;27356;50.920;5.350;2023-03-16T16:46:12;1.02;;;0.88;;
41667;SDS011;27356;50.920;5.350;2023-03-16T16:48:47;3.22;;;0.93;;
41667;SDS011;27356;50.920;5.350;2023-03-16T16:51:27;4.07;;;0.88;;